Time;durP1;ratioP1;P1;durP2;ratioP2;P2;SDS_P1;SDS_P2;PMS_P1;PMS_P2;Temp;Humidity;BMP_temperature;BMP_pressure;BME280_temperature;BME280_humidity;BME280_pressure;Samples;Min_cycle;Max_cycle;Signal;HPM_P1;HPM_P2
2021/07/25 00:01:01;;;;;;;6.00;5.33;;;;;;;17.66;71.88;99750.47;1722663;80;21057;-55
2021/07/25 00:03:28;;;;;;;6.83;4.72;;;;;;;17.67;71.82;99748.62;1722769;80;21578;-55
2021/07/25 00:05:54;;;;;;;7.30;6.65;;;;;;;17.63;71.78;99751.19;1686515;82;21615;-55
2021/07/25 00:08:20;;;;;;;6.08;5.40;;;;;;;17.59;71.81;99752.39;1731906;80;21080;-55
2021/07/25 00:10:47;;;;;;;6.75;5.12;;;;;;;17.55;71.88;99753.11;1721505;80;21049;-55
2021/07/25 00:13:19;;;;;;;4.97;4.47;;;;;;;17.52;71.91;99748.41;1725401;80;21160;-55
2021/07/25 00:15:44;;;;;;;4.70;4.40;;;;;;;17.48;71.94;99749.13;1724000;80;20974;-55
2021/07/25 00:18:10;;;;;;;6.47;4.72;;;;;;;17.45;72.01;99750.70;1728816;80;21504;-55
2021/07/25 00:20:36;;;;;;;8.80;5.95;;;;;;;17.45;72.13;99748.48;1723056;80;21468;-55
2021/07/25 00:23:03;;;;;;;4.60;4.20;;;;;;;17.44;72.15;99748.97;1721963;80;20977;-55
2021/07/25 00:25:29;;;;;;;6.45;5.92;;;;;;;17.44;72.16;99747.61;1725481;80;21449;-55
2021/07/25 00:27:56;;;;;;;7.50;6.53;;;;;;;17.43;72.19;99750.47;1727744;80;20943;-55
2021/07/25 00:30:24;;;;;;;6.20;5.60;;;;;;;17.42;72.17;99752.81;1711559;81;21496;-55
2021/07/25 00:32:50;;;;;;;7.03;5.03;;;;;;;17.40;72.17;99744.77;1711170;81;20892;-55
2021/07/25 00:35:18;;;;;;;5.58;4.80;;;;;;;17.39;72.13;99742.53;1719203;81;20938;-54
2021/07/25 00:37:52;;;;;;;5.15;4.85;;;;;;;17.38;72.07;99739.44;1709320;81;20990;-55
2021/07/25 00:40:38;;;;;;;6.50;5.75;;;;;;;17.35;72.00;99739.66;1711113;81;21514;-55
2021/07/25 00:43:04;;;;;;;7.65;6.85;;;;;;;17.32;71.91;99739.04;1711408;81;20939;-55
2021/07/25 00:45:32;;;;;;;8.13;6.15;;;;;;;17.28;71.96;99738.88;1714608;81;20963;-55
2021/07/25 00:47:59;;;;;;;8.20;7.37;;;;;;;17.25;71.99;99737.78;1710700;81;21524;-55
2021/07/25 00:50:26;;;;;;;7.42;6.25;;;;;;;17.24;72.05;99740.12;1657481;84;21135;-55
2021/07/25 00:52:53;;;;;;;11.10;5.97;;;;;;;17.20;72.07;99743.55;1675323;83;21101;-55
2021/07/25 00:55:20;;;;;;;11.75;5.25;;;;;;;17.17;72.16;99745.16;1673990;83;21949;-55
2021/07/25 00:57:47;;;;;;;7.60;5.55;;;;;;;17.15;72.28;99743.04;1667700;83;21141;-55
2021/07/25 01:00:14;;;;;;;8.68;4.83;;;;;;;17.14;72.43;99742.66;1668909;83;20958;-55
2021/07/25 01:03:05;;;;;;;6.33;5.72;;;;;;;17.14;72.50;99739.94;1670210;83;21002;-55
2021/07/25 01:06:11;;;;;;;10.80;6.58;;;;;;;17.13;72.50;99743.64;1675281;83;21129;-55
2021/07/25 01:09:02;;;;;;;8.05;5.45;;;;;;;17.12;72.51;99745.11;1668893;83;21606;-55
2021/07/25 01:11:37;;;;;;;6.65;5.95;;;;;;;17.08;72.51;99746.34;1673988;83;20943;-55
2021/07/25 01:14:04;;;;;;;6.55;5.97;;;;;;;17.04;72.48;99751.13;1673199;83;21084;-55
2021/07/25 01:16:32;;;;;;;5.87;4.87;;;;;;;16.99;72.43;99752.84;1707636;81;21109;-55
2021/07/25 01:18:58;;;;;;;8.60;5.00;;;;;;;16.96;72.48;99757.63;1711159;81;21041;-55
2021/07/25 01:21:24;;;;;;;4.47;4.08;;;;;;;16.94;72.57;99756.87;1709158;81;21884;-55
2021/07/25 01:23:51;;;;;;;5.55;4.15;;;;;;;16.93;72.66;99753.28;1706965;81;21573;-55
2021/07/25 01:26:29;;;;;;;7.00;4.28;;;;;;;16.93;72.70;99751.92;1712963;81;21077;-55
2021/07/25 01:28:58;;;;;;;4.62;4.22;;;;;;;16.93;72.78;99751.92;1711349;81;21105;-55
2021/07/25 01:31:38;;;;;;;8.75;4.40;;;;;;;16.94;72.81;99754.15;1708046;81;21402;-54
2021/07/25 01:34:05;;;;;;;13.63;5.90;;;;;;;16.94;72.77;99756.87;1708946;81;21105;-54
2021/07/25 01:36:31;;;;;;;9.00;5.80;;;;;;;16.92;72.68;99752.06;1714599;81;21026;-54
2021/07/25 01:38:57;;;;;;;8.38;5.97;;;;;;;16.87;72.61;99751.02;1709523;81;21039;-53
2021/07/25 01:41:24;;;;;;;7.00;5.70;;;;;;;16.84;72.59;99756.67;1705212;81;21066;-53
2021/07/25 01:43:51;;;;;;;4.50;4.12;;;;;;;16.80;72.57;99749.75;1710505;81;21037;-52
2021/07/25 01:46:18;;;;;;;4.83;4.53;;;;;;;16.77;72.56;99751.31;1713343;81;21062;-53
2021/07/25 01:48:44;;;;;;;5.20;4.45;;;;;;;16.75;72.60;99757.87;1707418;81;21038;-52
2021/07/25 01:51:12;;;;;;;7.08;4.05;;;;;;;16.72;72.65;99748.57;1711234;81;21460;-52
2021/07/25 01:53:39;;;;;;;5.58;4.62;;;;;;;16.70;72.65;99749.17;1714311;81;20900;-52
2021/07/25 01:56:05;;;;;;;8.63;5.25;;;;;;;16.68;72.70;99750.63;1713437;81;21023;-53
2021/07/25 01:58:32;;;;;;;7.90;5.90;;;;;;;16.67;72.77;99758.44;1708507;81;21772;-54
2021/07/25 02:00:58;;;;;;;6.05;5.65;;;;;;;16.63;72.81;99756.42;1706868;81;21395;-54
2021/07/25 02:03:26;;;;;;;7.40;5.92;;;;;;;16.62;72.87;99761.47;1710530;81;21192;-53
2021/07/25 02:05:52;;;;;;;6.22;5.62;;;;;;;16.59;72.84;99760.29;1708317;81;21635;-52
2021/07/25 02:08:19;;;;;;;9.70;5.67;;;;;;;16.56;72.90;99761.89;1710741;81;21078;-53
2021/07/25 02:10:50;;;;;;;7.50;4.70;;;;;;;16.54;72.89;99762.98;1705481;81;21625;-53
2021/07/25 02:13:18;;;;;;;7.50;4.40;;;;;;;16.51;72.87;99757.75;1710472;81;21105;-52
2021/07/25 02:15:45;;;;;;;5.28;4.60;;;;;;;16.49;72.90;99765.17;1707525;81;21544;-53
2021/07/25 02:18:11;;;;;;;5.70;4.40;;;;;;;16.46;72.99;99767.61;1707027;81;21161;-52
2021/07/25 02:20:41;;;;;;;7.92;4.62;;;;;;;16.44;73.05;99760.05;1709016;81;21046;-53
2021/07/25 02:23:08;;;;;;;8.45;5.53;;;;;;;16.45;73.06;99764.52;1711172;81;21153;-53
2021/07/25 02:25:34;;;;;;;7.60;5.37;;;;;;;16.45;73.12;99765.88;1710389;81;21073;-53
2021/07/25 02:28:01;;;;;;;6.00;5.22;;;;;;;16.46;73.08;99773.05;1708398;81;21123;-53
2021/07/25 02:30:27;;;;;;;7.78;5.83;;;;;;;16.45;73.06;99774.02;1725602;80;21120;-53
2021/07/25 02:32:54;;;;;;;11.10;6.65;;;;;;;16.43;73.08;99767.81;1724401;80;20883;-53
2021/07/25 02:35:20;;;;;;;6.35;4.40;;;;;;;16.42;73.18;99770.64;1723286;80;21536;-52
2021/07/25 02:37:47;;;;;;;10.78;4.30;;;;;;;16.41;73.25;99773.88;1697183;82;21573;-54
2021/07/25 02:40:13;;;;;;;4.00;3.65;;;;;;;16.41;73.33;99777.95;1725296;80;21089;-53
2021/07/25 02:42:39;;;;;;;6.47;4.53;;;;;;;16.41;73.42;99779.31;1720791;80;21120;-52
2021/07/25 02:45:06;;;;;;;6.20;4.62;;;;;;;16.42;73.58;99775.59;1719020;80;21117;-54
2021/07/25 02:47:33;;;;;;;5.90;4.80;;;;;;;16.43;73.70;99777.81;1719999;80;21627;-53
2021/07/25 02:49:59;;;;;;;7.05;4.95;;;;;;;16.46;73.67;99783.04;1719488;80;21694;-53
2021/07/25 02:52:25;;;;;;;6.28;5.08;;;;;;;16.45;73.66;99780.81;1720216;80;21144;-54
2021/07/25 02:54:51;;;;;;;9.28;5.30;;;;;;;16.46;73.65;99782.55;1719709;80;21090;-54
2021/07/25 02:57:18;;;;;;;7.20;6.55;;;;;;;16.45;73.70;99782.17;1723760;80;21069;-53
2021/07/25 02:59:44;;;;;;;7.12;5.60;;;;;;;16.46;73.77;99784.40;1718541;80;21134;-53
2021/07/25 03:02:11;;;;;;;5.85;4.42;;;;;;;16.47;73.86;99779.34;1725303;80;20930;-53
2021/07/25 03:04:37;;;;;;;6.15;4.60;;;;;;;16.48;73.94;99787.39;1730367;80;20905;-53
2021/07/25 03:07:04;;;;;;;7.45;4.40;;;;;;;16.50;74.04;99787.29;1728144;80;21058;-52
2021/07/25 03:09:30;;;;;;;4.53;4.20;;;;;;;16.51;74.13;99785.80;1723698;80;20915;-54
2021/07/25 03:11:58;;;;;;;8.13;4.80;;;;;;;16.57;74.23;99785.86;1722477;80;21449;-53
2021/07/25 03:14:24;;;;;;;7.15;6.45;;;;;;;16.61;74.29;99790.11;1722698;80;20962;-53
2021/07/25 03:16:52;;;;;;;6.28;5.62;;;;;;;16.63;74.42;99791.75;1723185;80;20883;-52
2021/07/25 03:19:19;;;;;;;6.17;5.67;;;;;;;16.67;74.57;99795.62;1724092;80;20926;-52
2021/07/25 03:21:45;;;;;;;6.75;5.83;;;;;;;16.69;74.64;99797.70;1722948;80;20993;-53
2021/07/25 03:24:12;;;;;;;9.23;6.28;;;;;;;16.73;74.78;99804.19;1726422;80;21373;-53
2021/07/25 03:26:38;;;;;;;5.40;4.90;;;;;;;16.77;74.91;99807.53;1724961;80;21460;-54
2021/07/25 03:29:05;;;;;;;4.40;4.00;;;;;;;16.80;75.05;99808.67;1725589;80;21014;-53
2021/07/25 03:31:33;;;;;;;5.03;4.50;;;;;;;16.82;75.26;99804.00;1708118;81;20896;-52
2021/07/25 03:34:00;;;;;;;5.10;4.70;;;;;;;16.86;75.44;99800.06;1711946;81;21122;-53
2021/07/25 03:36:27;;;;;;;6.97;5.72;;;;;;;16.90;75.62;99805.19;1706808;81;23437;-53
2021/07/25 03:38:54;;;;;;;6.75;5.10;;;;;;;16.95;75.75;99804.34;1706648;81;21086;-52
2021/07/25 03:43:46;;;;;;;7.07;6.40;;;;;;;17.05;76.06;99804.53;1773579;78;25589;-53
2021/07/25 03:46:13;;;;;;;5.80;5.37;;;;;;;17.05;76.17;99817.27;1705554;81;21077;-54
2021/07/25 03:48:40;;;;;;;4.97;4.58;;;;;;;17.08;76.29;99812.48;1691914;82;21172;-53
2021/07/25 03:51:06;;;;;;;8.43;4.45;;;;;;;17.12;76.34;99815.33;1671296;82;21039;-54
2021/07/25 03:53:33;;;;;;;9.68;4.42;;;;;;;17.17;76.38;99815.01;1676957;81;21004;-54
2021/07/25 03:56:00;;;;;;;7.00;5.03;;;;;;;17.23;76.51;99817.27;1690144;82;21165;-54
2021/07/25 03:58:26;;;;;;;5.30;4.83;;;;;;;17.29;76.71;99814.08;1690696;82;21169;-54
2021/07/25 04:00:52;;;;;;;5.47;5.08;;;;;;;17.36;76.85;99818.94;1702143;82;21848;-54
2021/07/25 04:03:18;;;;;;;5.28;4.17;;;;;;;17.44;76.94;99821.60;1700186;82;22010;-54
2021/07/25 04:05:45;;;;;;;6.53;4.97;;;;;;;17.51;76.99;99823.73;1703673;82;21025;-53
2021/07/25 04:08:11;;;;;;;6.33;5.70;;;;;;;17.58;77.15;99818.69;1702331;82;21184;-54
2021/07/25 04:10:42;;;;;;;11.28;6.20;;;;;;;17.65;77.24;99816.78;1700091;82;21964;-53
2021/07/25 04:13:12;;;;;;;9.80;6.05;;;;;;;17.72;77.30;99821.25;1703532;82;21998;-54
2021/07/25 04:15:42;;;;;;;6.65;6.03;;;;;;;17.80;77.38;99822.02;1702218;81;21393;-54
2021/07/25 04:18:09;;;;;;;6.03;5.62;;;;;;;17.88;77.47;99825.89;1706807;81;21449;-54
2021/07/25 04:20:35;;;;;;;5.47;5.08;;;;;;;17.96;77.48;99819.85;1688192;83;21108;-54
2021/07/25 04:23:03;;;;;;;7.30;6.08;;;;;;;18.04;77.56;99823.72;1694026;82;21789;-53
2021/07/25 04:25:30;;;;;;;11.05;6.28;;;;;;;18.13;77.59;99817.55;1697970;82;21126;-54
2021/07/25 04:27:58;;;;;;;6.70;5.17;;;;;;;18.23;77.51;99819.56;1696715;82;21096;-53
2021/07/25 04:30:26;;;;;;;7.40;6.70;;;;;;;18.35;77.43;99819.97;1704711;82;20907;-54
2021/07/25 04:32:54;;;;;;;11.55;6.65;;;;;;;18.45;77.22;99812.80;1707618;81;21060;-53
2021/07/25 04:35:21;;;;;;;7.03;6.53;;;;;;;18.58;76.74;99815.43;1710543;81;21358;-54
2021/07/25 04:37:51;;;;;;;7.40;6.70;;;;;;;18.74;76.41;99811.84;1705208;81;21754;-53
2021/07/25 04:40:18;;;;;;;10.60;7.85;;;;;;;18.83;76.00;99817.42;1707953;81;21237;-52
2021/07/25 04:42:53;;;;;;;8.08;7.33;;;;;;;18.95;75.50;99816.06;1697451;81;21575;-54
2021/07/25 04:45:33;;;;;;;6.58;5.90;;;;;;;19.05;74.89;99822.50;1691523;82;21486;-54
2021/07/25 04:48:06;;;;;;;12.37;7.03;;;;;;;19.16;74.19;99827.92;1697268;82;21010;-54
2021/07/25 04:50:40;;;;;;;6.97;6.47;;;;;;;19.27;73.57;99823.82;1698990;82;21413;-54
2021/07/25 04:53:07;;;;;;;7.83;7.15;;;;;;;19.37;73.13;99822.06;1691784;82;21469;-52
2021/07/25 04:55:35;;;;;;;8.35;7.42;;;;;;;19.47;72.70;99827.63;1691026;82;21129;-52
2021/07/25 04:58:05;;;;;;;8.48;7.75;;;;;;;19.55;72.37;99827.39;1694203;82;21109;-54
2021/07/25 05:00:32;;;;;;;7.70;7.10;;;;;;;19.65;71.98;99837.88;1697172;82;21563;-54
2021/07/25 05:03:05;;;;;;;8.50;7.70;;;;;;;19.75;71.47;99829.78;1696390;82;22285;-53
2021/07/25 05:05:32;;;;;;;8.53;7.12;;;;;;;19.84;70.75;99830.36;1700098;82;21083;-52
2021/07/25 05:08:02;;;;;;;8.20;7.40;;;;;;;19.94;70.20;99830.45;1699471;82;21108;-54
2021/07/25 05:10:32;;;;;;;6.95;6.42;;;;;;;20.03;69.56;99835.13;1698119;82;21057;-54
2021/07/25 05:13:03;;;;;;;9.50;6.67;;;;;;;20.13;69.30;99833.84;1695353;82;21121;-53
2021/07/25 05:15:35;;;;;;;7.62;6.92;;;;;;;20.22;69.07;99835.28;1695643;82;21755;-54
2021/07/25 05:18:07;;;;;;;8.05;7.45;;;;;;;20.33;68.82;99837.92;1700600;82;21168;-53
2021/07/25 05:20:53;;;;;;;9.85;6.90;;;;;;;20.45;68.54;99833.80;1697597;82;21089;-53
2021/07/25 05:23:38;;;;;;;8.50;7.62;;;;;;;20.56;68.33;99834.59;1696700;82;21047;-52
2021/07/25 05:26:04;;;;;;;9.70;8.18;;;;;;;20.68;68.07;99832.63;1692839;82;21101;-52
2021/07/25 05:28:31;;;;;;;11.73;8.40;;;;;;;20.80;67.59;99827.94;1696192;82;21129;-52
2021/07/25 05:30:58;;;;;;;8.10;7.35;;;;;;;20.89;67.05;99827.98;1692715;82;21058;-53
2021/07/25 05:33:24;;;;;;;8.98;8.03;;;;;;;20.98;66.25;99831.77;1695460;82;21157;-53
2021/07/25 05:35:50;;;;;;;8.10;7.35;;;;;;;21.07;66.12;99833.68;1693399;82;21078;-53
2021/07/25 05:38:17;;;;;;;6.90;6.45;;;;;;;21.15;65.53;99832.48;1689075;82;20939;-53
2021/07/25 05:40:43;;;;;;;9.60;8.00;;;;;;;21.26;65.17;99837.89;1694777;82;21870;-54
2021/07/25 05:43:10;;;;;;;9.65;8.03;;;;;;;21.36;65.09;99833.78;1694601;82;21657;-53
2021/07/25 05:45:37;;;;;;;9.65;8.60;;;;;;;21.45;65.67;99839.28;1693414;82;20923;-52
2021/07/25 05:48:04;;;;;;;10.32;9.25;;;;;;;21.56;66.14;99836.94;1692571;82;21481;-53
2021/07/25 05:50:30;;;;;;;8.78;8.00;;;;;;;21.66;66.15;99839.69;1693117;82;21010;-54
2021/07/25 05:52:57;;;;;;;8.33;7.72;;;;;;;21.74;65.72;99840.71;1693659;82;20986;-53
2021/07/25 05:55:26;;;;;;;8.03;7.33;;;;;;;21.81;65.06;99833.64;1694954;82;20954;-53
2021/07/25 05:57:52;;;;;;;8.00;7.35;;;;;;;21.90;64.41;99838.77;1691323;82;21082;-53
2021/07/25 06:00:19;;;;;;;6.00;5.50;;;;;;;21.99;64.42;99837.08;1692957;82;21160;-52
2021/07/25 06:02:57;;;;;;;10.88;5.67;;;;;;;22.07;63.10;99839.45;1690986;82;21366;-53
2021/07/25 06:05:35;;;;;;;8.58;5.80;;;;;;;22.18;62.52;99835.20;1644196;85;21473;-53
2021/07/25 06:08:05;;;;;;;8.90;6.05;;;;;;;22.29;61.80;99827.84;1642484;84;20986;-52
2021/07/25 06:10:32;;;;;;;6.35;5.85;;;;;;;22.41;61.36;99828.88;1643760;84;21393;-52
2021/07/25 06:13:01;;;;;;;6.97;6.37;;;;;;;22.50;61.03;99818.90;1642991;84;20987;-54
2021/07/25 06:15:29;;;;;;;5.58;5.15;;;;;;;22.61;60.93;99824.22;1640516;84;21399;-53
2021/07/25 06:17:55;;;;;;;6.12;5.62;;;;;;;22.70;60.54;99821.95;1648870;84;21449;-53
2021/07/25 06:20:22;;;;;;;5.62;5.25;;;;;;;22.81;59.85;99826.41;1643615;84;21397;-54
2021/07/25 06:22:52;;;;;;;6.70;5.30;;;;;;;22.89;59.86;99825.15;1642763;84;20958;-52
2021/07/25 06:25:21;;;;;;;5.95;5.40;;;;;;;22.98;59.57;99825.11;1642719;84;21432;-53
2021/07/25 06:27:51;;;;;;;4.65;4.35;;;;;;;23.05;59.57;99832.27;1641055;84;20963;-53
2021/07/25 06:30:18;;;;;;;6.12;5.37;;;;;;;23.13;59.75;99826.88;1640226;84;21076;-53
2021/07/25 06:33:03;;;;;;;6.20;5.50;;;;;;;23.21;59.32;99830.23;1641604;84;22212;-53
2021/07/25 06:35:40;;;;;;;6.25;5.72;;;;;;;23.30;58.98;99822.45;1641412;84;21625;-53
2021/07/25 06:38:12;;;;;;;4.90;4.60;;;;;;;23.38;59.00;99828.91;1641330;84;21156;-53
2021/07/25 06:40:43;;;;;;;10.25;5.70;;;;;;;23.48;58.70;99827.44;1642464;84;21097;-53
2021/07/25 06:43:11;;;;;;;6.08;5.67;;;;;;;23.57;58.48;99831.18;1639386;84;20949;-54
2021/07/25 06:45:39;;;;;;;5.65;5.28;;;;;;;23.65;58.41;99829.89;1678237;82;21101;-54
2021/07/25 06:48:18;;;;;;;5.35;4.60;;;;;;;23.72;58.40;99837.90;1632879;85;21118;-54
2021/07/25 06:50:47;;;;;;;4.62;4.33;;;;;;;23.78;58.58;99834.52;1678121;82;21122;-54
2021/07/25 06:53:13;;;;;;;2.85;2.30;;;;;;;23.85;57.60;99837.50;1681306;82;20954;-54
2021/07/25 06:55:40;;;;;;;3.52;2.67;;;;;;;23.90;55.63;99837.91;1680219;82;21146;-53
2021/07/25 06:58:07;;;;;;;4.40;2.75;;;;;;;23.99;55.42;99844.67;1676562;82;21066;-54
2021/07/25 07:00:34;;;;;;;3.12;2.92;;;;;;;24.08;55.30;99842.88;1678181;82;21106;-54
2021/07/25 07:03:00;;;;;;;4.12;2.67;;;;;;;24.19;54.72;99847.27;1689361;82;21045;-54
2021/07/25 07:05:31;;;;;;;2.87;2.62;;;;;;;24.27;53.41;99853.73;1678084;82;21682;-52
2021/07/25 07:08:03;;;;;;;1.77;1.67;;;;;;;24.37;52.10;99856.41;1688995;82;22446;-53
2021/07/25 07:10:38;;;;;;;2.87;1.65;;;;;;;24.46;51.24;99855.45;1677978;82;21126;-53
2021/07/25 07:13:08;;;;;;;4.03;2.47;;;;;;;24.54;50.47;99854.64;1678030;82;21050;-54
2021/07/25 07:15:39;;;;;;;2.67;2.47;;;;;;;24.60;50.10;99852.11;1683807;82;21479;-53
2021/07/25 07:18:05;;;;;;;2.27;2.17;;;;;;;24.68;50.12;99855.42;1680876;82;20920;-54
2021/07/25 07:20:32;;;;;;;7.35;3.30;;;;;;;24.77;50.66;99857.21;1681978;82;21782;-53
2021/07/25 07:23:05;;;;;;;2.98;2.77;;;;;;;24.85;50.22;99850.38;1679325;82;21141;-55
2021/07/25 07:25:38;;;;;;;3.92;2.15;;;;;;;24.93;50.21;99857.34;1681385;82;20963;-55
2021/07/25 07:28:05;;;;;;;6.85;3.22;;;;;;;25.00;50.03;99849.31;1683243;82;20995;-55
2021/07/25 07:30:32;;;;;;;4.75;3.10;;;;;;;25.06;49.68;99845.39;1681628;82;21082;-55
2021/07/25 07:33:12;;;;;;;5.25;3.08;;;;;;;25.13;49.91;99844.20;1673798;82;21838;-56
2021/07/25 07:35:39;;;;;;;2.42;2.22;;;;;;;25.20;49.45;99849.40;1677101;82;21006;-54
2021/07/25 07:38:06;;;;;;;7.35;3.08;;;;;;;25.27;49.62;99839.44;1677258;82;21220;-54
2021/07/25 07:40:33;;;;;;;15.05;6.72;;;;;;;25.34;49.08;99840.53;1675497;82;21087;-54
2021/07/25 07:43:00;;;;;;;9.08;4.60;;;;;;;25.40;49.73;99841.23;1679645;83;20970;-55
2021/07/25 07:45:28;;;;;;;4.72;3.47;;;;;;;25.44;49.54;99841.23;1677396;83;21123;-54
2021/07/25 07:47:54;;;;;;;5.20;3.30;;;;;;;25.50;49.97;99850.23;1678574;83;21336;-56
2021/07/25 07:50:21;;;;;;;5.10;2.90;;;;;;;25.53;49.50;99845.74;1673450;83;21114;-55
2021/07/25 07:52:47;;;;;;;4.58;3.42;;;;;;;25.56;48.89;99859.72;1677435;83;21082;-56
2021/07/25 07:55:14;;;;;;;5.42;2.67;;;;;;;25.59;48.58;99853.40;1678319;83;21030;-56
2021/07/25 07:57:40;;;;;;;8.45;4.08;;;;;;;25.65;48.46;99849.61;1682237;83;21626;-56
2021/07/25 08:00:08;;;;;;;4.60;2.77;;;;;;;25.69;48.35;99849.64;1679723;83;21115;-55
2021/07/25 08:02:42;;;;;;;3.12;2.83;;;;;;;25.74;47.83;99847.23;1683571;83;21699;-56
2021/07/25 08:05:10;;;;;;;4.58;2.55;;;;;;;25.79;47.92;99853.09;1681506;83;21110;-54
2021/07/25 08:07:37;;;;;;;4.17;2.87;;;;;;;25.84;47.37;99850.70;1676398;82;21130;-55
2021/07/25 08:10:05;;;;;;;2.70;2.50;;;;;;;25.90;47.58;99852.26;1680127;83;21154;-55
2021/07/25 08:12:31;;;;;;;2.25;2.05;;;;;;;25.98;47.58;99855.55;1683009;83;21069;-56
2021/07/25 08:14:58;;;;;;;4.22;1.85;;;;;;;26.06;47.94;99852.80;1679807;82;21065;-56
2021/07/25 08:17:24;;;;;;;2.42;1.95;;;;;;;26.18;47.87;99853.34;1688573;82;21161;-56
2021/07/25 08:19:50;;;;;;;3.35;2.25;;;;;;;26.30;48.13;99856.12;1688974;82;21042;-56
2021/07/25 08:22:17;;;;;;;3.37;2.75;;;;;;;26.42;46.66;99858.03;1678409;82;21573;-56
2021/07/25 08:24:43;;;;;;;4.70;2.15;;;;;;;26.52;44.92;99843.54;1677450;83;22315;-57
2021/07/25 08:27:09;;;;;;;7.08;2.30;;;;;;;26.63;44.71;99846.78;1677625;83;21091;-56
2021/07/25 08:29:37;;;;;;;2.40;2.05;;;;;;;26.75;44.40;99851.44;1680825;82;21082;-57
2021/07/25 08:32:05;;;;;;;2.40;2.20;;;;;;;26.87;43.83;99844.53;1680166;82;21114;-56
2021/07/25 08:34:31;;;;;;;4.87;2.10;;;;;;;26.93;43.56;99846.61;1675054;82;21146;-57
2021/07/25 08:36:59;;;;;;;3.58;2.58;;;;;;;26.99;42.86;99850.55;1646618;84;21130;-56
2021/07/25 08:39:26;;;;;;;5.62;2.65;;;;;;;27.01;43.31;99848.48;1617545;86;21387;-56
2021/07/25 08:42:13;;;;;;;3.08;2.75;;;;;;;26.99;42.93;99852.80;1679495;82;21102;-56
2021/07/25 08:44:51;;;;;;;4.83;2.60;;;;;;;27.04;44.13;99852.28;1684575;82;20951;-56
2021/07/25 08:47:34;;;;;;;6.17;4.03;;;;;;;27.01;42.83;99852.62;1695750;82;21054;-56
2021/07/25 08:50:04;;;;;;;4.87;4.47;;;;;;;26.97;42.07;99854.00;1692792;82;21030;-56
2021/07/25 08:52:32;;;;;;;3.90;2.70;;;;;;;26.95;41.49;99852.83;1694907;82;20974;-56
2021/07/25 08:55:01;;;;;;;5.20;2.67;;;;;;;26.95;41.61;99851.45;1695831;82;21382;-55
2021/07/25 08:57:33;;;;;;;2.52;1.62;;;;;;;26.99;42.38;99853.31;1698410;82;21022;-56
2021/07/25 08:59:59;;;;;;;2.92;2.40;;;;;;;27.05;43.77;99852.08;1692399;82;22179;-57
2021/07/25 09:02:29;;;;;;;3.08;1.75;;;;;;;27.17;43.26;99851.71;1692930;82;20895;-57
2021/07/25 09:04:56;;;;;;;1.98;1.52;;;;;;;27.28;43.32;99856.86;1694247;82;20909;-56
2021/07/25 09:07:26;;;;;;;1.72;1.62;;;;;;;27.38;43.19;99854.76;1696507;82;21042;-57
2021/07/25 09:09:57;;;;;;;2.12;2.02;;;;;;;27.42;42.04;99858.35;1692828;82;21046;-57
2021/07/25 09:12:25;;;;;;;1.77;1.67;;;;;;;27.46;42.31;99856.97;1691394;82;21868;-56
2021/07/25 09:14:58;;;;;;;6.80;2.85;;;;;;;27.53;41.83;99856.23;1699609;82;21500;-56
2021/07/25 09:17:24;;;;;;;5.20;2.27;;;;;;;27.58;41.65;99857.44;1694149;82;20939;-57
2021/07/25 09:20:33;;;;;;;1.87;1.60;;;;;;;27.64;40.38;99855.87;1698290;82;20931;-57
2021/07/25 09:23:07;;;;;;;2.42;1.92;;;;;;;27.68;39.54;99850.31;1690814;82;21448;-58
2021/07/25 09:25:38;;;;;;;1.50;1.35;;;;;;;27.76;40.38;99851.13;1691658;82;20946;-55
2021/07/25 09:28:18;;;;;;;1.70;1.30;;;;;;;27.83;39.42;99851.25;1694075;82;20959;-56
2021/07/25 09:30:45;;;;;;;1.55;1.45;;;;;;;27.93;39.94;99849.64;1644112;85;21356;-56
2021/07/25 09:33:36;;;;;;;6.42;1.90;;;;;;;28.04;38.73;99853.38;1646026;84;21110;-55
2021/07/25 09:36:09;;;;;;;1.75;1.65;;;;;;;28.11;37.99;99861.28;1646829;84;21100;-56
2021/07/25 09:38:35;;;;;;;2.25;1.62;;;;;;;28.15;37.54;99857.98;1647894;84;22236;-54
2021/07/25 09:41:02;;;;;;;1.85;1.62;;;;;;;28.20;38.06;99861.07;1642270;84;21460;-55
2021/07/25 09:43:31;;;;;;;3.47;1.42;;;;;;;28.24;38.46;99865.17;1595105;84;21591;-56
2021/07/25 09:45:59;;;;;;;2.77;1.90;;;;;;;28.33;38.74;99865.14;1639641;85;22521;-56
2021/07/25 09:48:33;;;;;;;1.60;1.40;;;;;;;28.39;38.73;99862.48;1638454;85;21129;-57
2021/07/25 09:51:19;;;;;;;4.47;1.40;;;;;;;28.44;38.01;99868.31;1613824;86;21174;-54
2021/07/25 09:53:48;;;;;;;2.08;1.87;;;;;;;28.50;38.02;99867.56;1584235;89;21610;-54
2021/07/25 09:56:16;;;;;;;2.35;1.85;;;;;;;28.55;37.91;99865.64;1641728;85;21045;-55
2021/07/25 09:58:44;;;;;;;1.98;1.62;;;;;;;28.60;37.71;99872.84;1643351;85;21030;-56
2021/07/25 10:01:13;;;;;;;1.55;1.45;;;;;;;28.63;37.06;99863.31;1640769;85;21080;-58
2021/07/25 10:03:39;;;;;;;2.95;2.27;;;;;;;28.68;37.38;99868.61;1641344;85;21139;-56
2021/07/25 10:06:23;;;;;;;1.75;1.55;;;;;;;28.74;36.69;99868.41;1652884;85;21153;-55
2021/07/25 10:09:10;;;;;;;1.92;1.65;;;;;;;28.77;36.54;99868.05;1641384;85;21073;-56
2021/07/25 10:11:40;;;;;;;4.60;1.87;;;;;;;28.80;36.47;99860.76;1649479;85;21580;-56
2021/07/25 10:14:06;;;;;;;1.40;1.30;;;;;;;28.83;36.71;99862.64;1660879;85;21140;-56
2021/07/25 10:16:33;;;;;;;3.17;1.92;;;;;;;28.82;35.78;99860.91;1646771;85;21550;-56
2021/07/25 10:19:00;;;;;;;29.23;26.62;;;;;;;28.80;36.00;99858.85;1644783;85;22036;-56
2021/07/25 10:21:26;;;;;;;3.60;3.10;;;;;;;28.72;35.89;99859.42;1646348;85;21033;-57
2021/07/25 10:23:57;;;;;;;1.50;1.40;;;;;;;28.60;36.60;99854.84;1612544;85;22194;-56
2021/07/25 10:26:28;;;;;;;1.55;1.45;;;;;;;28.45;36.86;99869.18;1642620;85;21144;-57
2021/07/25 10:28:59;;;;;;;2.10;1.70;;;;;;;28.31;37.06;99858.92;1639853;85;21846;-57
2021/07/25 10:31:26;;;;;;;2.95;1.45;;;;;;;28.17;38.84;99862.81;1640548;85;20934;-57
2021/07/25 10:33:53;;;;;;;6.87;1.60;;;;;;;28.10;38.25;99859.55;1634068;85;21097;-58
2021/07/25 10:36:20;;;;;;;12.73;1.50;;;;;;;28.05;38.63;99863.41;1640835;85;21144;-57
2021/07/25 10:38:47;;;;;;;1.57;1.47;;;;;;;28.07;38.32;99869.63;1637598;85;21123;-58
2021/07/25 10:41:16;;;;;;;3.80;1.60;;;;;;;28.11;38.02;99861.28;1637421;85;22415;-55
2021/07/25 10:43:43;;;;;;;1.72;1.62;;;;;;;28.16;38.39;99864.37;1640096;85;21046;-56
2021/07/25 10:46:21;;;;;;;6.53;1.90;;;;;;;28.21;38.25;99867.47;1672486;84;21086;-56
2021/07/25 10:49:09;;;;;;;2.02;1.50;;;;;;;28.28;38.00;99871.22;1677957;82;21122;-58
2021/07/25 10:51:57;;;;;;;1.65;1.55;;;;;;;28.36;37.73;99869.77;1677860;82;21141;-58
2021/07/25 10:54:28;;;;;;;1.35;1.10;;;;;;;28.43;36.80;99872.13;1674080;82;22084;-57
2021/07/25 10:57:10;;;;;;;1.62;1.10;;;;;;;28.50;36.71;99876.39;1679772;82;21050;-58
2021/07/25 10:59:50;;;;;;;3.20;1.60;;;;;;;28.56;36.75;99865.98;1678677;82;21130;-58
2021/07/25 11:02:29;;;;;;;1.52;1.42;;;;;;;28.64;36.78;99876.12;1679203;82;20987;-59
2021/07/25 11:04:59;;;;;;;1.50;1.40;;;;;;;28.70;37.02;99868.44;1677812;82;21604;-58
2021/07/25 11:07:31;;;;;;;2.92;1.45;;;;;;;28.74;36.86;99873.95;1677175;82;21118;-58
2021/07/25 11:10:10;;;;;;;2.60;2.10;;;;;;;28.74;36.55;99873.95;1676641;82;21080;-58
2021/07/25 11:12:55;;;;;;;3.95;2.12;;;;;;;28.70;35.82;99867.05;1678291;82;21401;-56
2021/07/25 11:15:34;;;;;;;3.72;1.30;;;;;;;28.63;36.54;99875.77;1677114;82;21130;-56
2021/07/25 11:20:57;;;;;;;3.70;2.60;;;;;;;28.61;38.21;99866.27;1846710;75;23583;-56
2021/07/25 11:23:33;;;;;;;2.70;2.50;;;;;;;28.55;39.86;99867.02;1811086;77;21399;-56
2021/07/25 11:25:57;;;;;;;3.75;3.45;;;;;;;28.44;39.89;99869.70;1769127;78;21550;-57
2021/07/25 11:28:42;;;;;;;4.75;2.60;;;;;;;28.36;40.08;99860.60;1721986;78;21577;-55
2021/07/25 11:31:10;;;;;;;4.45;2.95;;;;;;;28.27;40.23;99862.57;1770386;78;21471;-54
2021/07/25 11:33:45;;;;;;;3.35;2.30;;;;;;;28.16;40.33;99869.91;1772882;78;21516;-55
2021/07/25 11:36:20;;;;;;;2.40;2.02;;;;;;;28.07;39.23;99868.23;1760022;79;21417;-56
2021/07/25 11:38:53;;;;;;;2.08;1.92;;;;;;;27.97;39.46;99864.33;1759940;79;21129;-56
2021/07/25 11:41:23;;;;;;;3.65;1.60;;;;;;;27.90;38.96;99854.17;1762451;79;20957;-57
2021/07/25 11:44:09;;;;;;;3.67;2.58;;;;;;;27.85;40.02;99860.23;1740854;80;20879;-56
2021/07/25 11:46:45;;;;;;;1.80;1.70;;;;;;;27.80;40.89;99858.03;1741380;80;20910;-58
2021/07/25 11:49:30;;;;;;;2.30;2.20;;;;;;;27.72;40.03;99863.61;1742634;80;20938;-58
2021/07/25 11:52:00;;;;;;;;;;;;;;;27.64;40.84;99852.59;1742535;80;20898;-58